sensor_id;sensor_type;location;lat;lon;timestamp;temperature;humidity
3001;DHT22;1510;51.072;6.678;2023-02-23T00:00:17;9.00;99.90
3001;DHT22;1510;51.072;6.678;2023-02-23T00:02:48;9.00;99.90
3001;DHT22;1510;51.072;6.678;2023-02-23T00:05:15;8.90;99.90
3001;DHT22;1510;51.072;6.678;2023-02-23T00:07:44;9.00;99.90
3001;DHT22;1510;51.072;6.678;2023-02-23T00:10:12;8.90;99.90
3001;DHT22;1510;51.072;6.678;2023-02-23T00:12:40;8.90;99.90
3001;DHT22;1510;51.072;6.678;2023-02-23T00:15:07;8.90;99.90
3001;DHT22;1510;51.072;6.678;2023-02-23T00:17:35;8.90;99.90
3001;DHT22;1510;51.072;6.678;2023-02-23T00:20:04;8.90;99.90
3001;DHT22;1510;51.072;6.678;2023-02-23T00:22:37;8.90;99.90
3001;DHT22;1510;51.072;6.678;2023-02-23T00:25:07;8.90;99.90
3001;DHT22;1510;51.072;6.678;2023-02-23T00:27:36;8.90;99.90
3001;DHT22;1510;51.072;6.678;2023-02-23T00:30:04;8.90;99.90
3001;DHT22;1510;51.072;6.678;2023-02-23T00:32:32;8.90;99.90
3001;DHT22;1510;51.072;6.678;2023-02-23T00:34:59;8.90;99.90
3001;DHT22;1510;51.072;6.678;2023-02-23T00:37:26;8.80;99.90
3001;DHT22;1510;51.072;6.678;2023-02-23T00:39:54;8.90;99.90
3001;DHT22;1510;51.072;6.678;2023-02-23T00:42:23;8.90;99.90
3001;DHT22;1510;51.072;6.678;2023-02-23T00:44:56;8.90;99.90
3001;DHT22;1510;51.072;6.678;2023-02-23T00:47:30;8.90;99.90
3001;DHT22;1510;51.072;6.678;2023-02-23T00:49:56;8.90;99.90
3001;DHT22;1510;51.072;6.678;2023-02-23T00:52:23;8.80;99.90
3001;DHT22;1510;51.072;6.678;2023-02-23T00:54:50;8.90;99.90
3001;DHT22;1510;51.072;6.678;2023-02-23T00:57:16;8.90;99.90
3001;DHT22;1510;51.072;6.678;2023-02-23T00:59:45;8.90;99.90
3001;DHT22;1510;51.072;6.678;2023-02-23T01:02:11;8.90;99.90
3001;DHT22;1510;51.072;6.678;2023-02-23T01:04:38;8.90;99.90
3001;DHT22;1510;51.072;6.678;2023-02-23T01:07:05;8.90;99.90
3001;DHT22;1510;51.072;6.678;2023-02-23T01:09:32;8.90;99.90
3001;DHT22;1510;51.072;6.678;2023-02-23T01:11:59;8.90;99.90
3001;DHT22;1510;51.072;6.678;2023-02-23T01:14:26;8.90;99.90
3001;DHT22;1510;51.072;6.678;2023-02-23T01:16:54;8.90;99.90
3001;DHT22;1510;51.072;6.678;2023-02-23T01:19:21;8.80;99.90
3001;DHT22;1510;51.072;6.678;2023-02-23T01:21:48;8.80;99.90
3001;DHT22;1510;51.072;6.678;2023-02-23T01:24:15;8.80;99.90
3001;DHT22;1510;51.072;6.678;2023-02-23T01:26:43;8.80;99.90
3001;DHT22;1510;51.072;6.678;2023-02-23T01:29:12;8.80;99.90
3001;DHT22;1510;51.072;6.678;2023-02-23T01:31:41;8.80;99.90
3001;DHT22;1510;51.072;6.678;2023-02-23T01:34:11;8.80;99.90
3001;DHT22;1510;51.072;6.678;2023-02-23T01:36:40;8.80;99.90
3001;DHT22;1510;51.072;6.678;2023-02-23T01:39:10;8.80;99.90
3001;DHT22;1510;51.072;6.678;2023-02-23T01:41:37;8.80;99.90
3001;DHT22;1510;51.072;6.678;2023-02-23T01:45:00;8.80;99.90
3001;DHT22;1510;51.072;6.678;2023-02-23T01:46:55;8.80;99.90
3001;DHT22;1510;51.072;6.678;2023-02-23T01:49:27;8.80;99.90
3001;DHT22;1510;51.072;6.678;2023-02-23T01:51:58;8.80;99.90
3001;DHT22;1510;51.072;6.678;2023-02-23T01:54:30;8.80;99.90
3001;DHT22;1510;51.072;6.678;2023-02-23T01:56:59;8.80;99.90
3001;DHT22;1510;51.072;6.678;2023-02-23T01:59:30;8.80;99.90
3001;DHT22;1510;51.072;6.678;2023-02-23T02:01:59;8.80;99.90
3001;DHT22;1510;51.072;6.678;2023-02-23T02:04:32;8.80;99.90
3001;DHT22;1510;51.072;6.678;2023-02-23T02:07:08;8.80;99.90
3001;DHT22;1510;51.072;6.678;2023-02-23T02:09:35;8.90;99.90
3001;DHT22;1510;51.072;6.678;2023-02-23T02:12:03;8.70;99.90
3001;DHT22;1510;51.072;6.678;2023-02-23T02:14:33;8.80;99.90
3001;DHT22;1510;51.072;6.678;2023-02-23T02:17:23;8.80;99.90
3001;DHT22;1510;51.072;6.678;2023-02-23T02:20:17;8.80;99.90
3001;DHT22;1510;51.072;6.678;2023-02-23T02:23:28;8.70;99.90
3001;DHT22;1510;51.072;6.678;2023-02-23T02:26:14;8.70;99.90
3001;DHT22;1510;51.072;6.678;2023-02-23T02:29:14;8.70;99.90
3001;DHT22;1510;51.072;6.678;2023-02-23T02:32:24;8.80;99.90
3001;DHT22;1510;51.072;6.678;2023-02-23T02:35:20;8.70;99.90
3001;DHT22;1510;51.072;6.678;2023-02-23T02:38:01;8.80;99.90
3001;DHT22;1510;51.072;6.678;2023-02-23T02:40:33;8.70;99.90
3001;DHT22;1510;51.072;6.678;2023-02-23T02:43:06;8.70;99.90
3001;DHT22;1510;51.072;6.678;2023-02-23T02:45:51;8.80;99.90
3001;DHT22;1510;51.072;6.678;2023-02-23T02:48:26;8.70;99.90
3001;DHT22;1510;51.072;6.678;2023-02-23T02:50:59;8.70;99.90
3001;DHT22;1510;51.072;6.678;2023-02-23T02:53:38;8.70;99.90
3001;DHT22;1510;51.072;6.678;2023-02-23T02:56:07;8.70;99.90
3001;DHT22;1510;51.072;6.678;2023-02-23T02:58:35;8.70;99.90
3001;DHT22;1510;51.072;6.678;2023-02-23T03:01:11;8.70;99.90
3001;DHT22;1510;51.072;6.678;2023-02-23T03:03:57;8.80;99.90
3001;DHT22;1510;51.072;6.678;2023-02-23T03:06:45;8.70;99.90
3001;DHT22;1510;51.072;6.678;2023-02-23T03:09:35;8.70;99.90
3001;DHT22;1510;51.072;6.678;2023-02-23T03:12:29;8.60;99.90
3001;DHT22;1510;51.072;6.678;2023-02-23T03:15:28;8.60;99.90
3001;DHT22;1510;51.072;6.678;2023-02-23T03:18:28;8.60;99.90
3001;DHT22;1510;51.072;6.678;2023-02-23T03:21:21;8.60;99.90
3001;DHT22;1510;51.072;6.678;2023-02-23T03:24:13;8.50;99.90
3001;DHT22;1510;51.072;6.678;2023-02-23T03:27:04;8.50;99.90
3001;DHT22;1510;51.072;6.678;2023-02-23T03:29:53;8.50;99.90
3001;DHT22;1510;51.072;6.678;2023-02-23T03:32:44;8.50;99.90
3001;DHT22;1510;51.072;6.678;2023-02-23T03:35:36;8.50;99.90
3001;DHT22;1510;51.072;6.678;2023-02-23T03:38:28;8.50;99.90
3001;DHT22;1510;51.072;6.678;2023-02-23T03:41:16;8.50;99.90
3001;DHT22;1510;51.072;6.678;2023-02-23T03:44:07;8.50;99.90
3001;DHT22;1510;51.072;6.678;2023-02-23T03:46:53;8.40;99.90
3001;DHT22;1510;51.072;6.678;2023-02-23T03:49:38;8.40;99.90
3001;DHT22;1510;51.072;6.678;2023-02-23T03:52:25;8.40;99.90
3001;DHT22;1510;51.072;6.678;2023-02-23T03:55:14;8.40;99.90
3001;DHT22;1510;51.072;6.678;2023-02-23T03:58:00;8.40;99.90
3001;DHT22;1510;51.072;6.678;2023-02-23T04:00:48;8.40;99.90
3001;DHT22;1510;51.072;6.678;2023-02-23T04:03:38;8.30;99.90
3001;DHT22;1510;51.072;6.678;2023-02-23T04:06:26;8.40;99.90
3001;DHT22;1510;51.072;6.678;2023-02-23T04:09:11;8.40;99.90
3001;DHT22;1510;51.072;6.678;2023-02-23T04:11:57;8.40;99.90
3001;DHT22;1510;51.072;6.678;2023-02-23T04:14:49;8.50;99.90
3001;DHT22;1510;51.072;6.678;2023-02-23T04:17:18;8.50;99.90
3001;DHT22;1510;51.072;6.678;2023-02-23T04:19:50;8.50;99.90
3001;DHT22;1510;51.072;6.678;2023-02-23T04:22:17;8.40;99.90
3001;DHT22;1510;51.072;6.678;2023-02-23T04:24:44;8.50;99.90
3001;DHT22;1510;51.072;6.678;2023-02-23T04:27:11;8.50;99.90
3001;DHT22;1510;51.072;6.678;2023-02-23T04:29:38;8.40;99.90
3001;DHT22;1510;51.072;6.678;2023-02-23T04:32:05;8.40;99.90
3001;DHT22;1510;51.072;6.678;2023-02-23T04:34:33;8.40;99.90
3001;DHT22;1510;51.072;6.678;2023-02-23T04:37:00;8.40;99.90
3001;DHT22;1510;51.072;6.678;2023-02-23T04:39:27;8.40;99.90
3001;DHT22;1510;51.072;6.678;2023-02-23T04:41:54;8.40;99.90
3001;DHT22;1510;51.072;6.678;2023-02-23T04:44:20;8.40;99.90
3001;DHT22;1510;51.072;6.678;2023-02-23T04:46:47;8.30;99.90
3001;DHT22;1510;51.072;6.678;2023-02-23T04:49:14;8.40;99.90
3001;DHT22;1510;51.072;6.678;2023-02-23T04:51:42;8.30;99.90
3001;DHT22;1510;51.072;6.678;2023-02-23T04:54:09;8.30;99.90
3001;DHT22;1510;51.072;6.678;2023-02-23T04:56:36;8.30;99.90
3001;DHT22;1510;51.072;6.678;2023-02-23T04:59:03;8.30;99.90
3001;DHT22;1510;51.072;6.678;2023-02-23T05:01:30;8.30;99.90
3001;DHT22;1510;51.072;6.678;2023-02-23T05:03:57;8.30;99.90
3001;DHT22;1510;51.072;6.678;2023-02-23T05:06:24;8.30;99.90
3001;DHT22;1510;51.072;6.678;2023-02-23T05:08:53;8.30;99.90
3001;DHT22;1510;51.072;6.678;2023-02-23T05:11:19;8.20;99.90
3001;DHT22;1510;51.072;6.678;2023-02-23T05:13:46;8.30;99.90
3001;DHT22;1510;51.072;6.678;2023-02-23T05:16:13;8.30;99.90
3001;DHT22;1510;51.072;6.678;2023-02-23T05:18:39;8.30;99.90
3001;DHT22;1510;51.072;6.678;2023-02-23T05:21:07;8.30;99.90
3001;DHT22;1510;51.072;6.678;2023-02-23T05:23:35;8.30;99.90
3001;DHT22;1510;51.072;6.678;2023-02-23T05:26:05;8.30;99.90
3001;DHT22;1510;51.072;6.678;2023-02-23T05:28:34;8.30;99.90
3001;DHT22;1510;51.072;6.678;2023-02-23T05:31:02;8.30;99.90
3001;DHT22;1510;51.072;6.678;2023-02-23T05:33:29;8.40;99.90
3001;DHT22;1510;51.072;6.678;2023-02-23T05:35:56;8.40;99.90
3001;DHT22;1510;51.072;6.678;2023-02-23T05:38:23;8.40;99.90
3001;DHT22;1510;51.072;6.678;2023-02-23T05:40:50;8.40;99.90
3001;DHT22;1510;51.072;6.678;2023-02-23T05:43:18;8.30;99.90
3001;DHT22;1510;51.072;6.678;2023-02-23T05:45:45;8.30;99.90
3001;DHT22;1510;51.072;6.678;2023-02-23T05:48:12;8.30;99.90
3001;DHT22;1510;51.072;6.678;2023-02-23T05:50:39;8.40;99.90
3001;DHT22;1510;51.072;6.678;2023-02-23T05:53:06;8.40;99.90
3001;DHT22;1510;51.072;6.678;2023-02-23T05:55:32;8.30;99.90
3001;DHT22;1510;51.072;6.678;2023-02-23T05:58:01;8.40;99.90
3001;DHT22;1510;51.072;6.678;2023-02-23T06:00:29;8.40;99.90
3001;DHT22;1510;51.072;6.678;2023-02-23T06:02:56;8.40;99.90
3001;DHT22;1510;51.072;6.678;2023-02-23T06:05:22;8.40;99.90
3001;DHT22;1510;51.072;6.678;2023-02-23T06:07:49;8.40;99.90
3001;DHT22;1510;51.072;6.678;2023-02-23T06:10:16;8.40;99.90
3001;DHT22;1510;51.072;6.678;2023-02-23T06:12:43;8.40;99.90
3001;DHT22;1510;51.072;6.678;2023-02-23T06:15:10;8.40;99.90
3001;DHT22;1510;51.072;6.678;2023-02-23T06:17:38;8.40;99.90
3001;DHT22;1510;51.072;6.678;2023-02-23T06:20:05;8.40;99.90
3001;DHT22;1510;51.072;6.678;2023-02-23T06:22:32;8.40;99.90
3001;DHT22;1510;51.072;6.678;2023-02-23T06:24:59;8.40;99.90
3001;DHT22;1510;51.072;6.678;2023-02-23T06:27:30;8.40;99.90
3001;DHT22;1510;51.072;6.678;2023-02-23T06:29:58;8.30;99.90
3001;DHT22;1510;51.072;6.678;2023-02-23T06:32:25;8.40;99.90
3001;DHT22;1510;51.072;6.678;2023-02-23T06:34:53;8.40;99.90
3001;DHT22;1510;51.072;6.678;2023-02-23T06:37:20;8.30;99.90
3001;DHT22;1510;51.072;6.678;2023-02-23T06:39:47;8.30;99.90
3001;DHT22;1510;51.072;6.678;2023-02-23T06:42:15;8.40;99.90
3001;DHT22;1510;51.072;6.678;2023-02-23T06:44:41;8.40;99.90
3001;DHT22;1510;51.072;6.678;2023-02-23T06:47:08;8.40;99.90
3001;DHT22;1510;51.072;6.678;2023-02-23T06:49:35;8.30;99.90
3001;DHT22;1510;51.072;6.678;2023-02-23T06:52:06;8.40;99.90
3001;DHT22;1510;51.072;6.678;2023-02-23T06:54:35;8.40;99.90
3001;DHT22;1510;51.072;6.678;2023-02-23T06:57:04;8.30;99.90
3001;DHT22;1510;51.072;6.678;2023-02-23T06:59:31;8.30;99.90
3001;DHT22;1510;51.072;6.678;2023-02-23T07:02:00;8.30;99.90
3001;DHT22;1510;51.072;6.678;2023-02-23T07:04:29;8.40;99.90
3001;DHT22;1510;51.072;6.678;2023-02-23T07:06:55;8.40;99.90
3001;DHT22;1510;51.072;6.678;2023-02-23T07:09:24;8.40;99.90
3001;DHT22;1510;51.072;6.678;2023-02-23T07:11:50;8.40;99.90
3001;DHT22;1510;51.072;6.678;2023-02-23T07:14:17;8.40;99.90
3001;DHT22;1510;51.072;6.678;2023-02-23T07:16:44;8.40;99.90
3001;DHT22;1510;51.072;6.678;2023-02-23T07:19:11;8.40;99.90
3001;DHT22;1510;51.072;6.678;2023-02-23T07:21:37;8.40;99.90
3001;DHT22;1510;51.072;6.678;2023-02-23T07:24:05;8.40;99.90
3001;DHT22;1510;51.072;6.678;2023-02-23T07:26:33;8.40;99.90
3001;DHT22;1510;51.072;6.678;2023-02-23T07:29:01;8.40;99.90
3001;DHT22;1510;51.072;6.678;2023-02-23T07:31:28;8.40;99.90
3001;DHT22;1510;51.072;6.678;2023-02-23T07:33:55;8.50;99.90
3001;DHT22;1510;51.072;6.678;2023-02-23T07:36:22;8.40;99.90
3001;DHT22;1510;51.072;6.678;2023-02-23T07:38:49;8.50;99.90
3001;DHT22;1510;51.072;6.678;2023-02-23T07:41:16;8.50;99.90
3001;DHT22;1510;51.072;6.678;2023-02-23T07:43:44;8.50;99.90
3001;DHT22;1510;51.072;6.678;2023-02-23T07:46:10;8.50;99.90
3001;DHT22;1510;51.072;6.678;2023-02-23T07:48:37;8.50;99.90
3001;DHT22;1510;51.072;6.678;2023-02-23T07:51:09;8.50;99.90
3001;DHT22;1510;51.072;6.678;2023-02-23T07:53:37;8.50;99.90
3001;DHT22;1510;51.072;6.678;2023-02-23T07:56:04;8.50;99.90
3001;DHT22;1510;51.072;6.678;2023-02-23T07:58:32;8.50;99.90
3001;DHT22;1510;51.072;6.678;2023-02-23T08:01:00;8.60;99.90
3001;DHT22;1510;51.072;6.678;2023-02-23T08:03:27;8.50;99.90
3001;DHT22;1510;51.072;6.678;2023-02-23T08:05:54;8.60;99.90
3001;DHT22;1510;51.072;6.678;2023-02-23T08:08:21;8.60;99.90
3001;DHT22;1510;51.072;6.678;2023-02-23T08:10:48;8.60;99.90
3001;DHT22;1510;51.072;6.678;2023-02-23T08:13:14;8.70;99.90
3001;DHT22;1510;51.072;6.678;2023-02-23T08:15:41;8.70;99.90
3001;DHT22;1510;51.072;6.678;2023-02-23T08:18:09;8.80;99.90
3001;DHT22;1510;51.072;6.678;2023-02-23T08:20:36;8.70;99.90
3001;DHT22;1510;51.072;6.678;2023-02-23T08:23:03;8.80;99.90
3001;DHT22;1510;51.072;6.678;2023-02-23T08:25:30;8.80;99.90
3001;DHT22;1510;51.072;6.678;2023-02-23T08:27:57;8.90;99.90
3001;DHT22;1510;51.072;6.678;2023-02-23T08:30:29;8.90;99.90
3001;DHT22;1510;51.072;6.678;2023-02-23T08:32:56;8.90;99.90
3001;DHT22;1510;51.072;6.678;2023-02-23T08:35:24;8.90;99.90
3001;DHT22;1510;51.072;6.678;2023-02-23T08:37:51;8.90;99.90
3001;DHT22;1510;51.072;6.678;2023-02-23T08:40:17;9.00;99.90
3001;DHT22;1510;51.072;6.678;2023-02-23T08:42:45;9.00;99.90
3001;DHT22;1510;51.072;6.678;2023-02-23T08:45:13;9.10;99.90
3001;DHT22;1510;51.072;6.678;2023-02-23T08:47:40;9.10;99.90
3001;DHT22;1510;51.072;6.678;2023-02-23T08:50:07;9.10;99.90
3001;DHT22;1510;51.072;6.678;2023-02-23T08:52:36;9.10;99.90
3001;DHT22;1510;51.072;6.678;2023-02-23T08:55:04;9.00;99.90
3001;DHT22;1510;51.072;6.678;2023-02-23T08:57:32;8.90;99.90
3001;DHT22;1510;51.072;6.678;2023-02-23T08:59:58;8.80;99.90
3001;DHT22;1510;51.072;6.678;2023-02-23T09:02:26;8.70;99.90
3001;DHT22;1510;51.072;6.678;2023-02-23T09:04:53;8.70;99.90
3001;DHT22;1510;51.072;6.678;2023-02-23T09:07:21;8.70;99.90
3001;DHT22;1510;51.072;6.678;2023-02-23T09:09:53;8.60;99.90
3001;DHT22;1510;51.072;6.678;2023-02-23T09:12:20;8.50;99.90
3001;DHT22;1510;51.072;6.678;2023-02-23T09:14:47;8.60;99.90
3001;DHT22;1510;51.072;6.678;2023-02-23T09:17:13;8.60;99.90
3001;DHT22;1510;51.072;6.678;2023-02-23T09:19:40;8.60;99.90
3001;DHT22;1510;51.072;6.678;2023-02-23T09:22:07;8.70;99.90
3001;DHT22;1510;51.072;6.678;2023-02-23T09:24:33;8.70;99.90
3001;DHT22;1510;51.072;6.678;2023-02-23T09:27:02;8.80;99.90
3001;DHT22;1510;51.072;6.678;2023-02-23T09:29:28;8.80;99.90
3001;DHT22;1510;51.072;6.678;2023-02-23T09:31:56;8.90;99.90
3001;DHT22;1510;51.072;6.678;2023-02-23T09:34:23;8.90;99.90
3001;DHT22;1510;51.072;6.678;2023-02-23T09:36:49;8.90;99.90
3001;DHT22;1510;51.072;6.678;2023-02-23T09:39:16;9.00;99.90
3001;DHT22;1510;51.072;6.678;2023-02-23T09:41:55;9.00;99.90
3001;DHT22;1510;51.072;6.678;2023-02-23T09:44:45;9.10;99.90
3001;DHT22;1510;51.072;6.678;2023-02-23T09:47:27;9.10;99.90
3001;DHT22;1510;51.072;6.678;2023-02-23T09:49:58;9.10;99.90
3001;DHT22;1510;51.072;6.678;2023-02-23T09:52:27;9.00;99.90
3001;DHT22;1510;51.072;6.678;2023-02-23T09:54:57;9.10;99.90
3001;DHT22;1510;51.072;6.678;2023-02-23T09:57:28;9.10;99.90
3001;DHT22;1510;51.072;6.678;2023-02-23T10:00:00;9.10;99.90
3001;DHT22;1510;51.072;6.678;2023-02-23T10:02:35;9.10;99.90
3001;DHT22;1510;51.072;6.678;2023-02-23T10:05:05;9.10;99.90
3001;DHT22;1510;51.072;6.678;2023-02-23T10:07:42;9.10;99.90
3001;DHT22;1510;51.072;6.678;2023-02-23T10:10:19;9.00;99.90
3001;DHT22;1510;51.072;6.678;2023-02-23T10:12:55;9.10;99.90
3001;DHT22;1510;51.072;6.678;2023-02-23T10:15:33;9.10;99.90
3001;DHT22;1510;51.072;6.678;2023-02-23T10:18:10;9.10;99.90
3001;DHT22;1510;51.072;6.678;2023-02-23T10:20:43;9.10;99.90
3001;DHT22;1510;51.072;6.678;2023-02-23T10:23:16;9.10;99.90
3001;DHT22;1510;51.072;6.678;2023-02-23T10:25:47;9.20;99.90
3001;DHT22;1510;51.072;6.678;2023-02-23T10:28:16;9.10;99.90
3001;DHT22;1510;51.072;6.678;2023-02-23T10:30:47;9.10;99.90
3001;DHT22;1510;51.072;6.678;2023-02-23T10:33:19;9.10;99.90
3001;DHT22;1510;51.072;6.678;2023-02-23T10:35:49;9.00;99.90
3001;DHT22;1510;51.072;6.678;2023-02-23T10:38:18;9.00;99.90
3001;DHT22;1510;51.072;6.678;2023-02-23T10:40:49;9.00;99.90
3001;DHT22;1510;51.072;6.678;2023-02-23T10:43:16;8.90;99.90
3001;DHT22;1510;51.072;6.678;2023-02-23T10:45:46;8.90;99.90
3001;DHT22;1510;51.072;6.678;2023-02-23T10:48:17;8.80;99.90
3001;DHT22;1510;51.072;6.678;2023-02-23T10:50:46;8.80;99.90
3001;DHT22;1510;51.072;6.678;2023-02-23T10:53:17;8.90;99.90
3001;DHT22;1510;51.072;6.678;2023-02-23T10:55:45;8.90;99.90
3001;DHT22;1510;51.072;6.678;2023-02-23T10:58:14;8.90;99.90
3001;DHT22;1510;51.072;6.678;2023-02-23T11:00:56;8.90;99.90
3001;DHT22;1510;51.072;6.678;2023-02-23T11:03:31;9.10;99.90
3001;DHT22;1510;51.072;6.678;2023-02-23T11:05:58;9.10;99.90
3001;DHT22;1510;51.072;6.678;2023-02-23T11:08:27;9.10;99.90
3001;DHT22;1510;51.072;6.678;2023-02-23T11:11:19;9.10;99.90
3001;DHT22;1510;51.072;6.678;2023-02-23T11:13:53;9.20;99.90
3001;DHT22;1510;51.072;6.678;2023-02-23T11:16:23;9.10;99.90
3001;DHT22;1510;51.072;6.678;2023-02-23T11:18:52;9.10;99.90
3001;DHT22;1510;51.072;6.678;2023-02-23T11:21:23;9.20;99.90
3001;DHT22;1510;51.072;6.678;2023-02-23T11:23:52;9.20;99.90
3001;DHT22;1510;51.072;6.678;2023-02-23T11:26:27;9.30;99.90
3001;DHT22;1510;51.072;6.678;2023-02-23T11:28:57;9.50;99.90
3001;DHT22;1510;51.072;6.678;2023-02-23T11:31:31;9.40;99.90
3001;DHT22;1510;51.072;6.678;2023-02-23T11:34:00;9.50;99.90
3001;DHT22;1510;51.072;6.678;2023-02-23T11:36:29;9.40;99.90
3001;DHT22;1510;51.072;6.678;2023-02-23T11:39:18;9.40;99.90
3001;DHT22;1510;51.072;6.678;2023-02-23T11:41:46;9.30;99.90
3001;DHT22;1510;51.072;6.678;2023-02-23T11:44:29;9.30;99.90
3001;DHT22;1510;51.072;6.678;2023-02-23T11:46:57;9.30;99.90
3001;DHT22;1510;51.072;6.678;2023-02-23T11:49:29;9.30;99.90
3001;DHT22;1510;51.072;6.678;2023-02-23T11:51:57;9.40;99.90
3001;DHT22;1510;51.072;6.678;2023-02-23T11:54:27;9.50;99.90
3001;DHT22;1510;51.072;6.678;2023-02-23T11:56:55;9.50;99.90
3001;DHT22;1510;51.072;6.678;2023-02-23T11:59:26;9.50;99.90
3001;DHT22;1510;51.072;6.678;2023-02-23T12:02:00;9.50;99.90
3001;DHT22;1510;51.072;6.678;2023-02-23T12:04:31;9.60;99.90
3001;DHT22;1510;51.072;6.678;2023-02-23T12:07:18;9.60;99.90
3001;DHT22;1510;51.072;6.678;2023-02-23T12:09:48;9.70;99.90
3001;DHT22;1510;51.072;6.678;2023-02-23T12:12:20;9.70;99.90
3001;DHT22;1510;51.072;6.678;2023-02-23T12:14:52;9.60;99.90
3001;DHT22;1510;51.072;6.678;2023-02-23T12:17:24;9.60;99.90
3001;DHT22;1510;51.072;6.678;2023-02-23T12:19:55;9.50;99.90
3001;DHT22;1510;51.072;6.678;2023-02-23T12:22:27;9.50;99.90
3001;DHT22;1510;51.072;6.678;2023-02-23T12:24:59;9.30;99.90
3001;DHT22;1510;51.072;6.678;2023-02-23T12:27:30;9.20;99.90
3001;DHT22;1510;51.072;6.678;2023-02-23T12:30:04;9.20;99.90
3001;DHT22;1510;51.072;6.678;2023-02-23T12:32:44;9.00;99.90
3001;DHT22;1510;51.072;6.678;2023-02-23T12:35:15;8.90;99.90
3001;DHT22;1510;51.072;6.678;2023-02-23T12:37:47;8.80;99.90
3001;DHT22;1510;51.072;6.678;2023-02-23T12:40:18;8.80;99.90
3001;DHT22;1510;51.072;6.678;2023-02-23T12:42:53;8.80;99.90
3001;DHT22;1510;51.072;6.678;2023-02-23T12:45:28;8.90;99.90
3001;DHT22;1510;51.072;6.678;2023-02-23T12:48:05;9.00;99.90
3001;DHT22;1510;51.072;6.678;2023-02-23T12:50:37;9.00;99.90
3001;DHT22;1510;51.072;6.678;2023-02-23T12:53:15;9.10;99.90
3001;DHT22;1510;51.072;6.678;2023-02-23T12:56:03;9.20;99.90
3001;DHT22;1510;51.072;6.678;2023-02-23T12:58:39;9.30;99.90
3001;DHT22;1510;51.072;6.678;2023-02-23T13:01:09;9.40;99.90
3001;DHT22;1510;51.072;6.678;2023-02-23T13:06:49;9.50;99.90
3001;DHT22;1510;51.072;6.678;2023-02-23T13:09:29;9.50;99.90
3001;DHT22;1510;51.072;6.678;2023-02-23T13:12:24;9.60;99.90
3001;DHT22;1510;51.072;6.678;2023-02-23T13:14:59;9.70;99.90
3001;DHT22;1510;51.072;6.678;2023-02-23T13:17:37;9.70;99.90
3001;DHT22;1510;51.072;6.678;2023-02-23T13:20:14;9.60;99.90
3001;DHT22;1510;51.072;6.678;2023-02-23T13:22:48;9.60;99.90
3001;DHT22;1510;51.072;6.678;2023-02-23T13:25:26;9.70;99.90
3001;DHT22;1510;51.072;6.678;2023-02-23T13:27:57;9.70;99.90
3001;DHT22;1510;51.072;6.678;2023-02-23T13:30:25;9.80;99.90
3001;DHT22;1510;51.072;6.678;2023-02-23T13:32:57;9.90;99.90
3001;DHT22;1510;51.072;6.678;2023-02-23T13:35:32;10.00;99.90
3001;DHT22;1510;51.072;6.678;2023-02-23T13:38:05;10.30;99.90
3001;DHT22;1510;51.072;6.678;2023-02-23T13:40:41;10.40;99.90
3001;DHT22;1510;51.072;6.678;2023-02-23T13:43:14;10.50;99.90
3001;DHT22;1510;51.072;6.678;2023-02-23T13:45:58;10.60;99.90
3001;DHT22;1510;51.072;6.678;2023-02-23T13:48:34;10.70;99.90
3001;DHT22;1510;51.072;6.678;2023-02-23T13:51:13;10.80;99.90
3001;DHT22;1510;51.072;6.678;2023-02-23T13:53:44;10.70;99.90
3001;DHT22;1510;51.072;6.678;2023-02-23T13:56:15;10.90;99.90
3001;DHT22;1510;51.072;6.678;2023-02-23T13:58:49;11.20;99.90
3001;DHT22;1510;51.072;6.678;2023-02-23T14:01:20;11.00;99.90
3001;DHT22;1510;51.072;6.678;2023-02-23T14:03:52;11.00;99.90
3001;DHT22;1510;51.072;6.678;2023-02-23T14:06:23;10.90;99.90
3001;DHT22;1510;51.072;6.678;2023-02-23T14:08:54;10.60;99.90
3001;DHT22;1510;51.072;6.678;2023-02-23T14:11:43;10.40;99.90
3001;DHT22;1510;51.072;6.678;2023-02-23T14:14:14;10.30;99.90
3001;DHT22;1510;51.072;6.678;2023-02-23T14:16:42;10.20;99.90
3001;DHT22;1510;51.072;6.678;2023-02-23T14:19:13;10.00;99.90
3001;DHT22;1510;51.072;6.678;2023-02-23T14:21:59;9.60;99.90
3001;DHT22;1510;51.072;6.678;2023-02-23T14:24:27;9.40;99.90
3001;DHT22;1510;51.072;6.678;2023-02-23T14:27:32;9.30;99.90
3001;DHT22;1510;51.072;6.678;2023-02-23T14:30:15;9.20;99.90
3001;DHT22;1510;51.072;6.678;2023-02-23T14:32:43;9.10;99.90
3001;DHT22;1510;51.072;6.678;2023-02-23T14:35:35;9.10;99.90
3001;DHT22;1510;51.072;6.678;2023-02-23T14:38:11;9.00;99.90
3001;DHT22;1510;51.072;6.678;2023-02-23T14:40:43;8.90;99.90
3001;DHT22;1510;51.072;6.678;2023-02-23T14:43:44;9.00;99.90
3001;DHT22;1510;51.072;6.678;2023-02-23T14:46:27;9.00;99.90
3001;DHT22;1510;51.072;6.678;2023-02-23T14:48:59;9.00;99.90
3001;DHT22;1510;51.072;6.678;2023-02-23T14:51:39;9.00;99.90
3001;DHT22;1510;51.072;6.678;2023-02-23T14:54:12;9.00;99.90
3001;DHT22;1510;51.072;6.678;2023-02-23T14:56:47;9.00;99.90
3001;DHT22;1510;51.072;6.678;2023-02-23T14:59:18;9.10;99.90
3001;DHT22;1510;51.072;6.678;2023-02-23T15:01:46;9.10;99.90
3001;DHT22;1510;51.072;6.678;2023-02-23T15:04:16;9.10;99.90
3001;DHT22;1510;51.072;6.678;2023-02-23T15:06:44;9.10;99.90
3001;DHT22;1510;51.072;6.678;2023-02-23T15:09:17;9.10;99.90
3001;DHT22;1510;51.072;6.678;2023-02-23T15:11:47;9.20;99.90
3001;DHT22;1510;51.072;6.678;2023-02-23T15:14:21;9.10;99.90
3001;DHT22;1510;51.072;6.678;2023-02-23T15:16:48;9.10;99.90
3001;DHT22;1510;51.072;6.678;2023-02-23T15:19:33;9.10;99.90
3001;DHT22;1510;51.072;6.678;2023-02-23T15:22:02;9.10;99.90
3001;DHT22;1510;51.072;6.678;2023-02-23T15:24:39;9.00;99.90
3001;DHT22;1510;51.072;6.678;2023-02-23T15:27:15;9.10;99.90
3001;DHT22;1510;51.072;6.678;2023-02-23T15:29:42;9.00;99.90
3001;DHT22;1510;51.072;6.678;2023-02-23T15:32:11;9.00;99.90
3001;DHT22;1510;51.072;6.678;2023-02-23T15:34:40;8.90;99.90
3001;DHT22;1510;51.072;6.678;2023-02-23T15:37:11;8.90;99.90
3001;DHT22;1510;51.072;6.678;2023-02-23T15:39:47;8.90;99.90
3001;DHT22;1510;51.072;6.678;2023-02-23T15:42:21;8.80;99.90
3001;DHT22;1510;51.072;6.678;2023-02-23T15:44:54;8.80;99.90
3001;DHT22;1510;51.072;6.678;2023-02-23T15:47:23;8.80;99.90
3001;DHT22;1510;51.072;6.678;2023-02-23T15:50:00;8.80;99.90
3001;DHT22;1510;51.072;6.678;2023-02-23T15:52:30;8.80;99.90
3001;DHT22;1510;51.072;6.678;2023-02-23T15:55:02;8.70;99.90
3001;DHT22;1510;51.072;6.678;2023-02-23T15:57:33;8.80;99.90
3001;DHT22;1510;51.072;6.678;2023-02-23T16:00:03;8.70;99.90
3001;DHT22;1510;51.072;6.678;2023-02-23T16:02:35;8.70;99.90
3001;DHT22;1510;51.072;6.678;2023-02-23T16:05:09;8.70;99.90
3001;DHT22;1510;51.072;6.678;2023-02-23T16:07:40;8.70;99.90
3001;DHT22;1510;51.072;6.678;2023-02-23T16:10:21;8.60;99.90
3001;DHT22;1510;51.072;6.678;2023-02-23T16:12:50;8.70;99.90
3001;DHT22;1510;51.072;6.678;2023-02-23T16:15:23;8.70;99.90
3001;DHT22;1510;51.072;6.678;2023-02-23T16:17:53;8.70;99.90
3001;DHT22;1510;51.072;6.678;2023-02-23T16:20:32;8.70;99.90
3001;DHT22;1510;51.072;6.678;2023-02-23T16:23:01;8.70;99.90
3001;DHT22;1510;51.072;6.678;2023-02-23T16:25:31;8.60;99.90
3001;DHT22;1510;51.072;6.678;2023-02-23T16:28:00;8.60;99.90
3001;DHT22;1510;51.072;6.678;2023-02-23T16:30:38;8.70;99.90
3001;DHT22;1510;51.072;6.678;2023-02-23T16:33:12;8.60;99.90
3001;DHT22;1510;51.072;6.678;2023-02-23T16:35:45;8.60;99.90
3001;DHT22;1510;51.072;6.678;2023-02-23T16:38:14;8.60;99.90
3001;DHT22;1510;51.072;6.678;2023-02-23T16:40:47;8.60;99.90
3001;DHT22;1510;51.072;6.678;2023-02-23T16:43:14;8.50;99.90
3001;DHT22;1510;51.072;6.678;2023-02-23T16:45:41;8.60;99.90
3001;DHT22;1510;51.072;6.678;2023-02-23T16:48:12;8.50;99.90
3001;DHT22;1510;51.072;6.678;2023-02-23T16:50:38;8.50;99.90
3001;DHT22;1510;51.072;6.678;2023-02-23T16:53:06;8.50;99.90